Lake Wylie, South Carolina
Current Conditions -  °F | °C
As of 3:54 AM on Saturday 25 Oct 2014 (Local Time) from KAKH Reporting Station
Clear Clear  
Wind Chill: 43°   Ceiling: Unl
Heat Index: 45°   Visibility: 10mi
Dew Point: 41°   Wind: 5mph
Humidity: 86%   Direction: 360°N
Pressure: 30"   Gusts: NA
Location:  35.1039°N, 81.2451°W
Report Text: KAKH 250754Z AUTO 36004KT 10SM CLR 07/05 A3000 RMK AO2 SLP157 T00720050
Loading
Personal Weather Stations






























Interactive Weather Map
Tropical Storm Tracking
New forecast layout! Learn more

10-Day Weather Forecast

Advertisements
Track Severe Weather on mobile